Time;durP1;ratioP1;P1;durP2;ratioP2;P2;SDS_P1;SDS_P2;PMS_P1;PMS_P2;Temp;Humidity;BMP_temperature;BMP_pressure;BME280_temperature;BME280_humidity;BME280_pressure;Samples;Min_cycle;Max_cycle;Signal;HPM_P1;HPM_P2
2023/05/04 05:10:42;;;;;;;;;;;;;;;;;;5003262;28;19924;-45
2023/05/04 05:13:08;;;;;;;;;;;;;;;;;;4990062;28;19913;-46
2023/05/04 05:15:34;;;;;;;;;;;;;;;;;;4989930;28;19906;-43
2023/05/04 05:18:01;;;;;;;;;;;;;;;;;;4990625;28;19952;-47
2023/05/04 05:20:27;;;;;;;;;;;;;;;;;;4991971;28;19983;-45
2023/05/04 05:22:54;;;;;;;;;;;;;;;;;;5000986;28;20291;-44
2023/05/04 05:25:19;;;;;;;;;;;;;;;;;;5009476;28;20342;-46
2023/05/04 05:27:45;;;;;;;;;;;;;;;;;;5008928;28;19997;-44
2023/05/04 05:30:12;;;;;;;;;;;;;;;;;;5008165;28;19906;-44
2023/05/04 05:32:38;;;;;;;;;;;;;;;;;;5009213;28;19963;-44
2023/05/04 05:35:04;;;;;;;;;;;;;;;;;;4990737;28;20414;-47
2023/05/04 05:37:31;;;;;;;;;;;;;;;;;;4989076;28;19914;-43
2023/05/04 05:39:57;;;;;;;;;;;;;;;;;;4997276;28;20334;-43
2023/05/04 05:42:23;;;;;;;;;;;;;;;;;;4999796;28;19914;-45
2023/05/04 05:44:49;;;;;;;;;;;;;;;;;;4990322;28;20360;-44
2023/05/04 05:47:15;;;;;;;;;;;;;;;;;;4990780;28;19910;-47
2023/05/04 05:49:41;;;;;;;;;;;;;;;;;;4990924;28;19913;-44
2023/05/04 05:52:07;;;;;;;;;;;;;;;;;;4990209;28;20360;-44
2023/05/04 05:54:33;;;;;;;;;;;;;;;;;;4990832;28;19964;-45
2023/05/04 05:57:00;;;;;;;;;;;;;;;;;;4989422;28;19917;-45
2023/05/04 05:59:26;;;;;;;;;;;;;;;;;;4989523;28;19910;-44
2023/05/04 06:01:52;;;;;;;;;;;;;;;;;;4989201;28;19919;-44
2023/05/04 06:04:18;;;;;;;;;;;;;;;;;;4990231;28;19929;-45
2023/05/04 06:06:44;;;;;;;;;;;;;;;;;;4990372;28;19906;-44
2023/05/04 06:09:10;;;;;;;;;;;;;;;;;;4987680;28;19916;-45
2023/05/04 06:11:35;;;;;;;;;;;;;;;;;;4988699;28;19964;-44
2023/05/04 06:14:01;;;;;;;;;;;;;;;;;;4988506;28;19929;-44
2023/05/04 06:16:28;;;;;;;;;;;;;;;;;;4989075;28;20020;-43
2023/05/04 06:18:55;;;;;;;;;;;;;;;;;;4987304;28;20368;-43
2023/05/04 06:21:21;;;;;;;;;;;;;;;;;;4988888;28;19917;-46
2023/05/04 06:23:47;;;;;;;;;;;;;;;;;;4986457;28;20663;-43
2023/05/04 06:26:14;;;;;;;;;;;;;;;;;;4985980;28;19910;-44
2023/05/04 06:28:40;;;;;;;;;;;;;;;;;;4983951;28;20328;-43
2023/05/04 06:31:06;;;;;;;;;;;;;;;;;;4987711;28;19905;-44
2023/05/04 06:33:31;;;;;;;;;;;;;;;;;;4987734;28;19909;-46
2023/05/04 06:35:57;;;;;;;;;;;;;;;;;;4991931;28;19913;-44
2023/05/04 06:38:23;;;;;;;;;;;;;;;;;;5007606;28;19905;-44
2023/05/04 06:40:50;;;;;;;;;;;;;;;;;;4995225;28;19921;-43
2023/05/04 06:43:16;;;;;;;;;;;;;;;;;;4986438;28;19956;-45
2023/05/04 06:45:42;;;;;;;;;;;;;;;;;;4987790;28;19941;-45
2023/05/04 06:48:08;;;;;;;;;;;;;;;;;;4987455;28;20411;-43
2023/05/04 06:50:35;;;;;;;;;;;;;;;;;;4986721;28;19916;-43
2023/05/04 06:53:00;;;;;;;;;;;;;;;;;;4987197;28;19913;-44
2023/05/04 06:55:26;;;;;;;;;;;;;;;;;;4985870;28;20364;-44
2023/05/04 06:57:52;;;;;;;;;;;;;;;;;;4996428;28;19983;-44
2023/05/04 07:00:19;;;;;;;;;;;;;;;;;;4987122;28;19918;-46
2023/05/04 07:02:45;;;;;;;;;;;;;;;;;;4987291;28;19937;-48
2023/05/04 07:05:11;;;;;;;;;;;;;;;;;;4986260;28;19916;-44
2023/05/04 07:07:37;;;;;;;;;;;;;;;;;;4986714;28;19909;-44
2023/05/04 07:10:04;;;;;;;;;;;;;;;;;;4992054;28;19909;-43
2023/05/04 07:12:31;;;;;;;;;;;;;;;;;;5007000;28;19913;-44
2023/05/04 07:14:57;;;;;;;;;;;;;;;;;;5006652;28;20296;-45
2023/05/04 07:17:24;;;;;;;;;;;;;;;;;;4986930;28;20246;-47
2023/05/04 07:19:51;;;;;;;;;;;;;;;;;;4986529;28;19983;-46
2023/05/04 07:22:17;;;;;;;;;;;;;;;;;;4987709;28;19905;-43
2023/05/04 07:24:44;;;;;;;;;;;;;;;;;;4985782;28;19920;-45
2023/05/04 07:27:11;;;;;;;;;;;;;;;;;;4987283;28;19910;-45
2023/05/04 07:29:36;;;;;;;;;;;;;;;;;;4985766;28;19906;-45
2023/05/04 07:32:03;;;;;;;;;;;;;;;;;;4987086;28;19914;-45
2023/05/04 07:34:30;;;;;;;;;;;;;;;;;;4988929;28;19910;-44
2023/05/04 07:36:56;;;;;;;;;;;;;;;;;;4987124;28;20008;-44
2023/05/04 07:39:22;;;;;;;;;;;;;;;;;;4986852;28;20005;-45
2023/05/04 07:41:50;;;;;;;;;;;;;;;;;;4985768;28;19976;-46
2023/05/04 07:44:17;;;;;;;;;;;;;;;;;;5003551;28;19996;-44
2023/05/04 07:46:44;;;;;;;;;;;;;;;;;;4995793;28;19913;-44
2023/05/04 07:49:10;;;;;;;;;;;;;;;;;;4986909;28;19933;-43
2023/05/04 07:51:36;;;;;;;;;;;;;;;;;;4986805;28;19910;-43
2023/05/04 07:54:02;;;;;;;;;;;;;;;;;;4994852;28;19940;-45
2023/05/04 07:56:28;;;;;;;;;;;;;;;;;;4991172;28;19963;-43
2023/05/04 07:58:55;;;;;;;;;;;;;;;;;;4990367;28;20403;-46
2023/05/04 08:01:23;;;;;;;;;;;;;;;;;;4989397;28;20329;-44
2023/05/04 08:03:49;;;;;;;;;;;;;;;;;;4988311;28;20726;-44
2023/05/04 08:06:16;;;;;;;;;;;;;;;;;;4988199;28;20004;-43
2023/05/04 08:08:43;;;;;;;;;;;;;;;;;;4990156;28;19941;-44
2023/05/04 08:11:09;;;;;;;;;;;;;;;;;;4990709;28;19964;-44
2023/05/04 08:13:35;;;;;;;;;;;;;;;;;;4990302;28;19933;-47
2023/05/04 08:16:01;;;;;;;;;;;;;;;;;;4990293;28;20296;-44
2023/05/04 08:18:29;;;;;;;;;;;;;;;;;;4990576;28;19930;-45
2023/05/04 08:20:57;;;;;;;;;;;;;;;;;;4990335;28;19957;-44
2023/05/04 08:23:23;;;;;;;;;;;;;;;;;;4989610;28;19969;-45
2023/05/04 08:25:51;;;;;;;;;;;;;;;;;;4989809;28;19918;-45
2023/05/04 08:28:17;;;;;;;;;;;;;;;;;;4990260;28;20266;-44
2023/05/04 08:30:44;;;;;;;;;;;;;;;;;;4989936;28;19948;-44
2023/05/04 08:33:11;;;;;;;;;;;;;;;;;;4990606;28;19912;-47
2023/05/04 08:35:38;;;;;;;;;;;;;;;;;;4989691;28;19909;-44
2023/05/04 08:38:03;;;;;;;;;;;;;;;;;;4987969;28;19913;-45
2023/05/04 08:40:29;;;;;;;;;;;;;;;;;;4990163;28;20100;-45
2023/05/04 08:42:55;;;;;;;;;;;;;;;;;;4989732;28;19906;-44
2023/05/04 08:45:22;;;;;;;;;;;;;;;;;;4991084;28;19921;-45
2023/05/04 08:47:48;;;;;;;;;;;;;;;;;;4991341;28;20403;-44
2023/05/04 08:50:14;;;;;;;;;;;;;;;;;;4990629;28;19913;-44
2023/05/04 08:52:40;;;;;;;;;;;;;;;;;;4989780;28;19909;-44
2023/05/04 08:55:06;;;;;;;;;;;;;;;;;;4988888;28;19909;-47
2023/05/04 08:57:32;;;;;;;;;;;;;;;;;;4997864;28;19925;-46
2023/05/04 08:59:58;;;;;;;;;;;;;;;;;;4987796;28;19997;-49
2023/05/04 09:02:25;;;;;;;;;;;;;;;;;;4989724;28;19909;-48
2023/05/04 09:04:51;;;;;;;;;;;;;;;;;;4989746;28;19910;-44
2023/05/04 09:07:17;;;;;;;;;;;;;;;;;;4989768;28;19906;-43
2023/05/04 09:09:43;;;;;;;;;;;;;;;;;;4989528;28;20273;-43
2023/05/04 09:12:09;;;;;;;;;;;;;;;;;;4990477;28;20412;-45
2023/05/04 09:14:35;;;;;;;;;;;;;;;;;;4989260;28;19926;-43
2023/05/04 09:17:02;;;;;;;;;;;;;;;;;;4988592;28;20000;-44
2023/05/04 09:19:32;;;;;;;;;;;;;;;;;;4989613;28;20048;-44
2023/05/04 09:21:59;;;;;;;;;;;;;;;;;;4989633;28;19906;-43
2023/05/04 09:24:26;;;;;;;;;;;;;;;;;;4989563;28;20427;-45
2023/05/04 09:26:52;;;;;;;;;;;;;;;;;;4989422;28;19914;-47
2023/05/04 09:29:18;;;;;;;;;;;;;;;;;;4989131;28;19925;-45
2023/05/04 09:31:44;;;;;;;;;;;;;;;;;;4989011;28;19925;-46
2023/05/04 09:34:10;;;;;;;;;;;;;;;;;;4989813;28;20008;-45
2023/05/04 09:36:37;;;;;;;;;;;;;;;;;;4987966;28;19925;-44
2023/05/04 09:39:03;;;;;;;;;;;;;;;;;;4988737;28;19999;-44
2023/05/04 09:41:29;;;;;;;;;;;;;;;;;;4989169;28;20392;-46
2023/05/04 09:43:56;;;;;;;;;;;;;;;;;;4988982;28;19909;-46
2023/05/04 09:46:22;;;;;;;;;;;;;;;;;;4990253;28;20258;-45
2023/05/04 09:48:48;;;;;;;;;;;;;;;;;;4988681;28;19910;-44
2023/05/04 09:51:14;;;;;;;;;;;;;;;;;;4990206;28;20023;-43
2023/05/04 09:53:40;;;;;;;;;;;;;;;;;;4990324;28;19910;-46
2023/05/04 09:56:07;;;;;;;;;;;;;;;;;;4989694;28;20308;-44
2023/05/04 09:58:33;;;;;;;;;;;;;;;;;;4990016;28;19913;-43
2023/05/04 10:00:58;;;;;;;;;;;;;;;;;;4988754;28;19918;-43
2023/05/04 10:03:24;;;;;;;;;;;;;;;;;;4989951;28;19936;-47
2023/05/04 10:05:50;;;;;;;;;;;;;;;;;;4989869;28;19949;-48
2023/05/04 10:08:16;;;;;;;;;;;;;;;;;;4988103;28;19925;-44
2023/05/04 10:10:42;;;;;;;;;;;;;;;;;;4988836;28;19960;-47
2023/05/04 10:13:08;;;;;;;;;;;;;;;;;;4989991;28;19968;-44
2023/05/04 10:15:35;;;;;;;;;;;;;;;;;;4989078;28;19910;-44
2023/05/04 10:18:01;;;;;;;;;;;;;;;;;;4989738;28;19906;-47
2023/05/04 10:20:27;;;;;;;;;;;;;;;;;;4990178;28;20393;-46
2023/05/04 10:22:53;;;;;;;;;;;;;;;;;;4989561;28;19902;-43
2023/05/04 10:25:19;;;;;;;;;;;;;;;;;;4989944;28;20288;-44
2023/05/04 10:27:44;;;;;;;;;;;;;;;;;;4989162;28;19956;-46
2023/05/04 10:30:10;;;;;;;;;;;;;;;;;;4989892;28;19917;-44
2023/05/04 10:32:38;;;;;;;;;;;;;;;;;;4989579;28;19910;-42
2023/05/04 10:35:04;;;;;;;;;;;;;;;;;;4989303;28;19910;-46
2023/05/04 10:37:30;;;;;;;;;;;;;;;;;;4989480;28;19968;-44
2023/05/04 10:39:56;;;;;;;;;;;;;;;;;;4989751;28;19906;-47
2023/05/04 10:42:22;;;;;;;;;;;;;;;;;;4989274;28;19979;-47
2023/05/04 10:44:48;;;;;;;;;;;;;;;;;;4989397;28;19913;-43
2023/05/04 10:47:14;;;;;;;;;;;;;;;;;;4989733;28;20008;-44
2023/05/04 10:49:40;;;;;;;;;;;;;;;;;;4989487;28;19936;-44
2023/05/04 10:52:06;;;;;;;;;;;;;;;;;;4987812;28;19909;-44
2023/05/04 10:54:32;;;;;;;;;;;;;;;;;;4989387;28;20277;-43
2023/05/04 10:56:58;;;;;;;;;;;;;;;;;;4990187;28;19918;-44
2023/05/04 10:59:24;;;;;;;;;;;;;;;;;;4987747;28;19909;-44
2023/05/04 11:01:50;;;;;;;;;;;;;;;;;;4986920;28;19980;-43
2023/05/04 11:04:16;;;;;;;;;;;;;;;;;;4987739;28;19997;-44
2023/05/04 11:06:43;;;;;;;;;;;;;;;;;;4990906;28;19913;-46
2023/05/04 11:09:11;;;;;;;;;;;;;;;;;;4989062;28;19917;-47
2023/05/04 11:11:37;;;;;;;;;;;;;;;;;;4987046;28;20333;-45
2023/05/04 11:14:03;;;;;;;;;;;;;;;;;;4987124;28;20008;-45
2023/05/04 11:16:29;;;;;;;;;;;;;;;;;;4987101;28;19937;-48
2023/05/04 11:18:55;;;;;;;;;;;;;;;;;;4986850;28;19910;-46
2023/05/04 11:21:21;;;;;;;;;;;;;;;;;;4987166;28;19966;-46
2023/05/04 11:23:47;;;;;;;;;;;;;;;;;;4986540;28;19910;-48
2023/05/04 11:26:13;;;;;;;;;;;;;;;;;;4987422;28;19905;-42
2023/05/04 11:28:39;;;;;;;;;;;;;;;;;;4992144;28;19964;-47
2023/05/04 11:31:07;;;;;;;;;;;;;;;;;;4991460;28;19953;-44
2023/05/04 11:33:32;;;;;;;;;;;;;;;;;;4989716;28;19910;-43
2023/05/04 11:36:02;;;;;;;;;;;;;;;;;;4989341;28;19910;-45
2023/05/04 11:38:28;;;;;;;;;;;;;;;;;;4989702;28;19906;-47
2023/05/04 11:40:54;;;;;;;;;;;;;;;;;;4989222;28;19910;-48
2023/05/04 11:43:20;;;;;;;;;;;;;;;;;;4989649;28;19933;-47
2023/05/04 11:45:46;;;;;;;;;;;;;;;;;;4989305;28;19909;-46
2023/05/04 11:48:12;;;;;;;;;;;;;;;;;;4989439;28;19949;-46
2023/05/04 11:50:38;;;;;;;;;;;;;;;;;;4990014;28;19949;-45
2023/05/04 11:53:05;;;;;;;;;;;;;;;;;;4989292;28;19906;-47
2023/05/04 11:55:31;;;;;;;;;;;;;;;;;;4971584;28;20320;-45
2023/05/04 11:57:57;;;;;;;;;;;;;;;;;;4988645;28;19910;-45
2023/05/04 12:00:24;;;;;;;;;;;;;;;;;;4989580;28;19910;-46
2023/05/04 12:02:50;;;;;;;;;;;;;;;;;;4988944;28;19910;-47
2023/05/04 12:05:16;;;;;;;;;;;;;;;;;;4989526;28;20391;-48
2023/05/04 12:07:43;;;;;;;;;;;;;;;;;;4988637;28;19912;-45
2023/05/04 12:10:08;;;;;;;;;;;;;;;;;;4989613;28;19933;-44
2023/05/04 12:12:35;;;;;;;;;;;;;;;;;;4989165;28;20369;-45
2023/05/04 12:15:01;;;;;;;;;;;;;;;;;;4988945;28;20004;-46
2023/05/04 12:17:27;;;;;;;;;;;;;;;;;;4989149;28;20012;-44
2023/05/04 12:19:53;;;;;;;;;;;;;;;;;;4988748;28;19917;-43
2023/05/04 12:22:20;;;;;;;;;;;;;;;;;;4988886;28;20442;-44
2023/05/04 12:24:46;;;;;;;;;;;;;;;;;;4988928;28;19956;-43
2023/05/04 12:27:12;;;;;;;;;;;;;;;;;;4989321;28;19936;-43
2023/05/04 12:29:39;;;;;;;;;;;;;;;;;;4989545;28;19906;-44
2023/05/04 12:32:05;;;;;;;;;;;;;;;;;;4988832;28;19914;-47
2023/05/04 12:34:31;;;;;;;;;;;;;;;;;;4984510;28;19968;-45
2023/05/04 12:36:58;;;;;;;;;;;;;;;;;;4988328;28;19984;-45
2023/05/04 12:39:24;;;;;;;;;;;;;;;;;;4988340;28;19905;-44
2023/05/04 12:41:50;;;;;;;;;;;;;;;;;;4989781;28;19949;-44
2023/05/04 12:44:16;;;;;;;;;;;;;;;;;;4988989;28;19949;-44
2023/05/04 12:46:42;;;;;;;;;;;;;;;;;;4995572;28;19996;-47
2023/05/04 12:49:09;;;;;;;;;;;;;;;;;;5005454;28;19910;-46
2023/05/04 12:51:35;;;;;;;;;;;;;;;;;;4990888;28;19937;-46
2023/05/04 12:54:01;;;;;;;;;;;;;;;;;;4990029;28;19960;-46
2023/05/04 12:56:27;;;;;;;;;;;;;;;;;;5001367;28;19971;-45
2023/05/04 12:58:53;;;;;;;;;;;;;;;;;;5006335;28;19914;-47
2023/05/04 13:01:19;;;;;;;;;;;;;;;;;;5000835;28;19919;-48
2023/05/04 13:03:45;;;;;;;;;;;;;;;;;;5002246;28;20015;-45
2023/05/04 13:06:11;;;;;;;;;;;;;;;;;;5006002;28;19913;-46
2023/05/04 13:08:37;;;;;;;;;;;;;;;;;;5009504;28;19909;-46
2023/05/04 13:11:03;;;;;;;;;;;;;;;;;;4990435;28;20447;-46
2023/05/04 13:13:29;;;;;;;;;;;;;;;;;;5004920;28;19913;-46
2023/05/04 13:15:55;;;;;;;;;;;;;;;;;;5003699;28;19932;-43
2023/05/04 13:18:28;;;;;;;;;;;;;;;;;;5000944;28;19910;-43
2023/05/04 13:20:54;;;;;;;;;;;;;;;;;;5002380;28;19909;-45
2023/05/04 13:23:23;;;;;;;;;;;;;;;;;;5004575;28;19905;-49
2023/05/04 13:25:49;;;;;;;;;;;;;;;;;;4992749;28;19972;-47
2023/05/04 13:28:15;;;;;;;;;;;;;;;;;;4986873;28;20380;-45
2023/05/04 13:30:41;;;;;;;;;;;;;;;;;;5001928;28;19968;-46
2023/05/04 13:33:07;;;;;;;;;;;;;;;;;;4988285;28;19905;-45
2023/05/04 13:35:33;;;;;;;;;;;;;;;;;;4993393;28;19944;-46
2023/05/04 13:37:59;;;;;;;;;;;;;;;;;;4986550;28;19961;-43
2023/05/04 13:40:25;;;;;;;;;;;;;;;;;;4983338;28;19909;-45
2023/05/04 13:42:51;;;;;;;;;;;;;;;;;;4989361;28;19913;-47
2023/05/04 13:45:18;;;;;;;;;;;;;;;;;;4988970;28;19968;-45
2023/05/04 13:47:45;;;;;;;;;;;;;;;;;;4998190;28;19909;-47
2023/05/04 13:50:11;;;;;;;;;;;;;;;;;;5004228;28;19910;-47
2023/05/04 13:52:37;;;;;;;;;;;;;;;;;;4988028;28;20093;-45
2023/05/04 13:55:03;;;;;;;;;;;;;;;;;;4988778;28;20387;-45
2023/05/04 13:57:29;;;;;;;;;;;;;;;;;;4992450;28;19920;-44
2023/05/04 13:59:55;;;;;;;;;;;;;;;;;;5007924;28;20043;-44
2023/05/04 14:02:21;;;;;;;;;;;;;;;;;;5009261;28;20382;-45
2023/05/04 14:04:49;;;;;;;;;;;;;;;;;;5007294;28;19909;-47
2023/05/04 14:07:15;;;;;;;;;;;;;;;;;;5006744;28;19916;-44
2023/05/04 14:09:41;;;;;;;;;;;;;;;;;;4991048;28;19906;-47
2023/05/04 14:12:17;;;;;;;;;;;;;;;;;;5084779;28;20297;-46
2023/05/04 14:14:42;;;;;;;;;;;;;;;;;;5080847;28;19916;-47
2023/05/04 14:17:08;;;;;;;;;;;;;;;;;;5084386;28;20386;-45
2023/05/04 14:19:34;;;;;;;;;;;;;;;;;;5084122;28;19982;-47
2023/05/04 14:22:01;;;;;;;;;;;;;;;;;;5082576;28;20058;-46
2023/05/04 14:24:28;;;;;;;;;;;;;;;;;;5082327;28;19935;-45
2023/05/04 14:26:54;;;;;;;;;;;;;;;;;;5083907;28;20452;-46
2023/05/04 14:29:20;;;;;;;;;;;;;;;;;;5083297;28;19958;-45
2023/05/04 14:31:46;;;;;;;;;;;;;;;;;;5101541;28;19920;-46
2023/05/04 14:34:12;;;;;;;;;;;;;;;;;;5104500;28;20265;-45
2023/05/04 14:36:38;;;;;;;;;;;;;;;;;;5084615;28;19912;-46
2023/05/04 14:39:04;;;;;;;;;;;;;;;;;;5082994;28;19974;-44
2023/05/04 14:41:35;;;;;;;;;;;;;;;;;;5081913;28;19919;-45
2023/05/04 14:44:01;;;;;;;;;;;;;;;;;;5083760;28;19916;-45
2023/05/04 14:46:27;;;;;;;;;;;;;;;;;;5082759;28;19928;-45
2023/05/04 14:48:53;;;;;;;;;;;;;;;;;;5074938;28;19958;-47
2023/05/04 14:51:19;;;;;;;;;;;;;;;;;;5082468;28;19962;-46
2023/05/04 14:53:46;;;;;;;;;;;;;;;;;;5081206;28;20010;-49
2023/05/04 14:56:12;;;;;;;;;;;;;;;;;;5080217;28;19916;-46
2023/05/04 14:58:38;;;;;;;;;;;;;;;;;;5072666;28;20368;-44
2023/05/04 15:01:04;;;;;;;;;;;;;;;;;;5062355;28;19952;-46
2023/05/04 15:03:30;;;;;;;;;;;;;;;;;;5078543;28;20014;-45
2023/05/04 15:05:57;;;;;;;;;;;;;;;;;;5082815;28;19938;-44
2023/05/04 15:08:23;;;;;;;;;;;;;;;;;;5085804;28;19908;-45
2023/05/04 15:10:49;;;;;;;;;;;;;;;;;;5102749;28;19915;-45
2023/05/04 15:13:16;;;;;;;;;;;;;;;;;;5095615;28;19935;-45
2023/05/04 15:15:42;;;;;;;;;;;;;;;;;;5081470;28;20256;-45
2023/05/04 15:18:08;;;;;;;;;;;;;;;;;;5080750;28;19947;-45
2023/05/04 15:20:34;;;;;;;;;;;;;;;;;;5081558;28;20367;-45
2023/05/04 15:23:02;;;;;;;;;;;;;;;;;;5061572;28;20046;-45
2023/05/04 15:25:28;;;;;;;;;;;;;;;;;;5079611;28;19923;-46
2023/05/04 15:27:54;;;;;;;;;;;;;;;;;;5067114;28;19916;-45
2023/05/04 15:30:19;;;;;;;;;;;;;;;;;;5067281;28;19979;-46
2023/05/04 15:32:45;;;;;;;;;;;;;;;;;;5066560;28;20172;-45
2023/05/04 15:35:11;;;;;;;;;;;;;;;;;;5065890;28;19919;-48
2023/05/04 15:37:37;;;;;;;;;;;;;;;;;;5067180;28;20262;-45
2023/05/04 15:40:03;;;;;;;;;;;;;;;;;;5065608;28;19925;-49
2023/05/04 15:42:29;;;;;;;;;;;;;;;;;;5064260;28;20011;-45
2023/05/04 15:44:56;;;;;;;;;;;;;;;;;;5066507;28;19916;-47
2023/05/04 15:47:22;;;;;;;;;;;;;;;;;;5066916;28;19958;-46
2023/05/04 15:49:48;;;;;;;;;;;;;;;;;;5058519;28;19920;-46
2023/05/04 15:52:14;;;;;;;;;;;;;;;;;;5061421;28;19920;-46
2023/05/04 15:54:40;;;;;;;;;;;;;;;;;;5067268;28;19939;-44
2023/05/04 15:57:06;;;;;;;;;;;;;;;;;;5067104;28;20437;-45
2023/05/04 15:59:32;;;;;;;;;;;;;;;;;;5067751;28;19913;-44
2023/05/04 16:01:58;;;;;;;;;;;;;;;;;;5066941;28;20424;-43
2023/05/04 16:04:24;;;;;;;;;;;;;;;;;;5067234;28;19999;-43
2023/05/04 16:06:50;;;;;;;;;;;;;;;;;;5066858;28;19912;-45
2023/05/04 16:09:17;;;;;;;;;;;;;;;;;;5066802;28;19917;-45
2023/05/04 16:11:44;;;;;;;;;;;;;;;;;;5067029;28;19920;-43
2023/05/04 16:14:10;;;;;;;;;;;;;;;;;;5066533;28;19909;-45
2023/05/04 16:16:36;;;;;;;;;;;;;;;;;;5066895;28;19913;-45
2023/05/04 16:19:02;;;;;;;;;;;;;;;;;;5067117;28;19963;-44
2023/05/04 16:21:28;;;;;;;;;;;;;;;;;;5066789;28;19965;-43
2023/05/04 16:23:54;;;;;;;;;;;;;;;;;;5061206;28;19923;-44
2023/05/04 16:26:20;;;;;;;;;;;;;;;;;;5068380;28;19909;-43
2023/05/04 16:28:46;;;;;;;;;;;;;;;;;;5059089;28;19970;-46
2023/05/04 16:31:12;;;;;;;;;;;;;;;;;;5051543;28;19924;-45
2023/05/04 16:33:40;;;;;;;;;;;;;;;;;;5066932;28;19916;-44
2023/05/04 16:36:06;;;;;;;;;;;;;;;;;;5067839;28;20314;-43
2023/05/04 16:38:32;;;;;;;;;;;;;;;;;;5059208;28;20023;-45
2023/05/04 16:40:58;;;;;;;;;;;;;;;;;;5067284;28;20019;-43
2023/05/04 16:43:24;;;;;;;;;;;;;;;;;;5066432;28;19928;-43
2023/05/04 16:45:50;;;;;;;;;;;;;;;;;;5067723;28;19913;-43
2023/05/04 16:48:16;;;;;;;;;;;;;;;;;;5067595;28;19917;-44
2023/05/04 16:50:42;;;;;;;;;;;;;;;;;;5066439;28;19947;-42
2023/05/04 16:53:08;;;;;;;;;;;;;;;;;;5064428;28;19917;-49
2023/05/04 16:55:34;;;;;;;;;;;;;;;;;;5064914;28;19978;-45
2023/05/04 16:57:59;;;;;;;;;;;;;;;;;;5066242;28;19958;-46
2023/05/04 17:00:25;;;;;;;;;;;;;;;;;;5065411;28;20097;-47
2023/05/04 17:02:51;;;;;;;;;;;;;;;;;;5057904;28;20259;-48
2023/05/04 17:05:18;;;;;;;;;;;;;;;;;;5060334;28;19923;-47
2023/05/04 17:07:45;;;;;;;;;;;;;;;;;;5055699;28;19922;-47
2023/05/04 17:10:10;;;;;;;;;;;;;;;;;;5059285;28;20362;-45
2023/05/04 17:12:37;;;;;;;;;;;;;;;;;;5051296;28;19929;-47
2023/05/04 17:15:03;;;;;;;;;;;;;;;;;;5051908;28;19913;-45
2023/05/04 17:17:29;;;;;;;;;;;;;;;;;;5061415;28;20295;-47
2023/05/04 17:19:55;;;;;;;;;;;;;;;;;;5064443;28;19916;-46
2023/05/04 17:22:22;;;;;;;;;;;;;;;;;;5065696;28;19912;-47
2023/05/04 17:24:49;;;;;;;;;;;;;;;;;;5065495;28;19958;-45
2023/05/04 17:27:15;;;;;;;;;;;;;;;;;;5060206;28;19912;-44
2023/05/04 17:29:42;;;;;;;;;;;;;;;;;;5065187;28;19908;-45
2023/05/04 17:32:08;;;;;;;;;;;;;;;;;;5066217;28;19928;-45
2023/05/04 17:34:34;;;;;;;;;;;;;;;;;;5067060;28;19917;-46
2023/05/04 17:37:00;;;;;;;;;;;;;;;;;;5065248;28;19947;-44
2023/05/04 17:39:26;;;;;;;;;;;;;;;;;;5068459;28;19963;-46
2023/05/04 17:41:52;;;;;;;;;;;;;;;;;;5073615;28;20347;-45
2023/05/04 17:44:18;;;;;;;;;;;;;;;;;;5067542;28;19916;-44
2023/05/04 17:46:44;;;;;;;;;;;;;;;;;;5065273;28;19919;-45
2023/05/04 17:49:10;;;;;;;;;;;;;;;;;;5066019;28;19912;-46
2023/05/04 17:51:38;;;;;;;;;;;;;;;;;;5064334;28;19920;-45
2023/05/04 17:54:04;;;;;;;;;;;;;;;;;;5060552;28;19946;-45
2023/05/04 17:56:30;;;;;;;;;;;;;;;;;;5063993;28;20378;-46
2023/05/04 17:58:56;;;;;;;;;;;;;;;;;;5064706;28;19986;-45
2023/05/04 18:01:22;;;;;;;;;;;;;;;;;;5062525;28;19908;-44
2023/05/04 18:03:47;;;;;;;;;;;;;;;;;;5061639;28;19917;-45
2023/05/04 18:06:13;;;;;;;;;;;;;;;;;;5059894;28;19943;-48
2023/05/04 18:08:39;;;;;;;;;;;;;;;;;;5063830;28;19921;-44
2023/05/04 18:11:05;;;;;;;;;;;;;;;;;;5057883;28;19916;-45
2023/05/04 18:13:31;;;;;;;;;;;;;;;;;;5065822;28;19913;-43
2023/05/04 18:15:57;;;;;;;;;;;;;;;;;;5062694;28;19916;-47
2023/05/04 18:18:23;;;;;;;;;;;;;;;;;;5065865;28;19919;-45
2023/05/04 18:20:49;;;;;;;;;;;;;;;;;;5064277;28;19935;-44
2023/05/04 18:23:15;;;;;;;;;;;;;;;;;;5062357;28;20019;-46
2023/05/04 18:25:41;;;;;;;;;;;;;;;;;;5065099;28;20283;-45
2023/05/04 18:28:07;;;;;;;;;;;;;;;;;;5061049;28;19912;-44
2023/05/04 18:30:33;;;;;;;;;;;;;;;;;;5065185;28;19951;-46
2023/05/04 18:32:59;;;;;;;;;;;;;;;;;;5065893;28;19917;-45
2023/05/04 18:35:25;;;;;;;;;;;;;;;;;;5062803;28;19912;-44
2023/05/04 18:37:51;;;;;;;;;;;;;;;;;;5062728;28;20318;-45
2023/05/04 18:40:17;;;;;;;;;;;;;;;;;;5064655;28;19913;-45
2023/05/04 18:42:43;;;;;;;;;;;;;;;;;;5060161;28;19981;-44
2023/05/04 18:45:10;;;;;;;;;;;;;;;;;;5061914;28;20029;-44
2023/05/04 18:47:36;;;;;;;;;;;;;;;;;;5062700;28;19920;-44
2023/05/04 18:50:02;;;;;;;;;;;;;;;;;;5062665;28;20276;-44
2023/05/04 18:52:28;;;;;;;;;;;;;;;;;;5054118;28;19960;-44
2023/05/04 18:54:54;;;;;;;;;;;;;;;;;;5062548;28;20400;-45
2023/05/04 18:57:20;;;;;;;;;;;;;;;;;;5062492;28;19991;-45
2023/05/04 18:59:46;;;;;;;;;;;;;;;;;;5067250;28;20021;-44
2023/05/04 19:02:12;;;;;;;;;;;;;;;;;;5067881;28;19909;-45
2023/05/04 19:04:39;;;;;;;;;;;;;;;;;;5067226;28;19924;-44
2023/05/04 19:07:05;;;;;;;;;;;;;;;;;;5054422;28;19952;-44
2023/05/04 19:09:31;;;;;;;;;;;;;;;;;;5064628;28;19952;-44
2023/05/04 19:11:57;;;;;;;;;;;;;;;;;;5067058;28;19920;-45
2023/05/04 19:14:24;;;;;;;;;;;;;;;;;;5067132;28;19924;-45
2023/05/04 19:16:50;;;;;;;;;;;;;;;;;;5066542;28;20319;-46
2023/05/04 19:19:16;;;;;;;;;;;;;;;;;;5059361;28;19916;-45
2023/05/04 19:21:43;;;;;;;;;;;;;;;;;;5067094;28;19919;-44
2023/05/04 19:24:09;;;;;;;;;;;;;;;;;;5066086;28;19955;-45
2023/05/04 19:26:37;;;;;;;;;;;;;;;;;;5066016;28;20231;-45
2023/05/04 19:29:03;;;;;;;;;;;;;;;;;;5056751;28;19917;-44
2023/05/04 19:31:30;;;;;;;;;;;;;;;;;;5064337;28;19935;-46
2023/05/04 19:33:57;;;;;;;;;;;;;;;;;;5066612;28;20326;-44
2023/05/04 19:36:23;;;;;;;;;;;;;;;;;;5066136;28;19916;-44
2023/05/04 19:38:49;;;;;;;;;;;;;;;;;;5065032;28;20302;-44
2023/05/04 19:41:15;;;;;;;;;;;;;;;;;;5063763;28;19962;-47
2023/05/04 19:43:41;;;;;;;;;;;;;;;;;;5066377;28;19912;-48
2023/05/04 19:46:07;;;;;;;;;;;;;;;;;;5065301;28;19913;-43
2023/05/04 19:48:34;;;;;;;;;;;;;;;;;;5057130;28;20008;-47
2023/05/04 19:51:01;;;;;;;;;;;;;;;;;;5057897;28;19943;-44
2023/05/04 19:53:27;;;;;;;;;;;;;;;;;;5060255;28;20934;-44
2023/05/04 19:55:53;;;;;;;;;;;;;;;;;;5046964;28;19916;-45
2023/05/04 19:58:20;;;;;;;;;;;;;;;;;;5062840;28;19916;-44
2023/05/04 20:00:47;;;;;;;;;;;;;;;;;;5063868;28;19966;-44
2023/05/04 20:03:15;;;;;;;;;;;;;;;;;;5065134;28;19935;-44
2023/05/04 20:05:42;;;;;;;;;;;;;;;;;;5063450;28;20359;-45
2023/05/04 20:08:07;;;;;;;;;;;;;;;;;;5063621;28;19959;-44
2023/05/04 20:10:33;;;;;;;;;;;;;;;;;;5060957;28;19955;-45
2023/05/04 20:13:00;;;;;;;;;;;;;;;;;;5065149;28;20350;-44
2023/05/04 20:15:25;;;;;;;;;;;;;;;;;;5064122;28;20212;-46
2023/05/04 20:17:52;;;;;;;;;;;;;;;;;;5065607;28;19913;-45
2023/05/04 20:20:20;;;;;;;;;;;;;;;;;;5065510;28;19917;-48
2023/05/04 20:22:47;;;;;;;;;;;;;;;;;;5066160;28;20010;-43
2023/05/04 20:25:13;;;;;;;;;;;;;;;;;;5065159;28;20408;-44
2023/05/04 20:27:39;;;;;;;;;;;;;;;;;;5065909;28;19916;-45
2023/05/04 20:30:06;;;;;;;;;;;;;;;;;;5066262;28;20007;-45
2023/05/04 20:32:32;;;;;;;;;;;;;;;;;;5064437;28;19948;-47
2023/05/04 20:34:58;;;;;;;;;;;;;;;;;;5063556;28;19951;-45
2023/05/04 20:37:24;;;;;;;;;;;;;;;;;;5065778;28;19919;-45
2023/05/04 20:39:51;;;;;;;;;;;;;;;;;;5065230;28;19917;-43
2023/05/04 20:42:20;;;;;;;;;;;;;;;;;;5065107;28;19920;-45
2023/05/04 20:44:46;;;;;;;;;;;;;;;;;;5055596;28;20276;-47
2023/05/04 20:47:12;;;;;;;;;;;;;;;;;;5063484;28;19919;-45
2023/05/04 20:49:38;;;;;;;;;;;;;;;;;;5064919;28;19913;-44
2023/05/04 20:52:03;;;;;;;;;;;;;;;;;;5065786;28;19916;-45
2023/05/04 20:54:30;;;;;;;;;;;;;;;;;;5064458;28;19916;-45
2023/05/04 20:56:55;;;;;;;;;;;;;;;;;;5062393;28;19920;-45
2023/05/04 20:59:21;;;;;;;;;;;;;;;;;;5065557;28;19908;-43
2023/05/04 21:01:47;;;;;;;;;;;;;;;;;;5065923;28;20283;-44
2023/05/04 21:04:13;;;;;;;;;;;;;;;;;;5064319;28;19924;-43
2023/05/04 21:06:40;;;;;;;;;;;;;;;;;;5064498;28;19923;-44
2023/05/04 21:09:06;;;;;;;;;;;;;;;;;;5066023;28;19912;-44
2023/05/04 21:11:32;;;;;;;;;;;;;;;;;;5065629;28;19921;-43
2023/05/04 21:13:58;;;;;;;;;;;;;;;;;;5064335;28;19954;-44
2023/05/04 21:16:24;;;;;;;;;;;;;;;;;;5045433;28;19959;-46
2023/05/04 21:18:51;;;;;;;;;;;;;;;;;;5045365;28;20395;-44
2023/05/04 21:21:17;;;;;;;;;;;;;;;;;;5077446;28;19963;-44
2023/05/04 21:23:44;;;;;;;;;;;;;;;;;;5046027;28;19928;-44
2023/05/04 21:26:10;;;;;;;;;;;;;;;;;;5056709;28;19963;-45
2023/05/04 21:28:36;;;;;;;;;;;;;;;;;;5046040;28;19952;-44
2023/05/04 21:31:02;;;;;;;;;;;;;;;;;;5078675;28;19964;-45
2023/05/04 21:33:28;;;;;;;;;;;;;;;;;;5046200;28;19940;-44
2023/05/04 21:35:54;;;;;;;;;;;;;;;;;;5045870;28;19935;-44
2023/05/04 21:38:20;;;;;;;;;;;;;;;;;;5066372;28;20041;-46
2023/05/04 21:40:46;;;;;;;;;;;;;;;;;;5064798;28;20291;-44
2023/05/04 21:43:12;;;;;;;;;;;;;;;;;;5060945;28;19958;-46
2023/05/04 21:45:38;;;;;;;;;;;;;;;;;;5065263;28;19959;-45
2023/05/04 21:48:04;;;;;;;;;;;;;;;;;;5066415;28;19908;-44